sensor_id;sensor_type;location;lat;lon;timestamp;temperature;humidity
56542;DHT22;42438;53.174;6.730;2023-01-05T00:00:08;9.60;99.90
56542;DHT22;42438;53.174;6.730;2023-01-05T00:02:39;9.40;99.90
56542;DHT22;42438;53.174;6.730;2023-01-05T00:05:09;9.70;99.90
56542;DHT22;42438;53.174;6.730;2023-01-05T00:07:40;9.30;99.90
56542;DHT22;42438;53.174;6.730;2023-01-05T00:10:11;9.70;99.90
56542;DHT22;42438;53.174;6.730;2023-01-05T00:13:01;9.50;99.90
56542;DHT22;42438;53.174;6.730;2023-01-05T00:15:50;9.40;99.90
56542;DHT22;42438;53.174;6.730;2023-01-05T00:18:40;9.30;99.90
56542;DHT22;42438;53.174;6.730;2023-01-05T00:21:29;9.50;99.90
56542;DHT22;42438;53.174;6.730;2023-01-05T00:24:18;9.60;99.90
56542;DHT22;42438;53.174;6.730;2023-01-05T00:26:49;9.20;99.90
56542;DHT22;42438;53.174;6.730;2023-01-05T00:29:19;9.60;99.90
56542;DHT22;42438;53.174;6.730;2023-01-05T00:31:50;9.40;99.90
56542;DHT22;42438;53.174;6.730;2023-01-05T00:34:21;9.30;99.90
56542;DHT22;42438;53.174;6.730;2023-01-05T00:36:51;9.20;99.90
56542;DHT22;42438;53.174;6.730;2023-01-05T00:39:22;9.40;99.90
56542;DHT22;42438;53.174;6.730;2023-01-05T00:41:53;9.10;99.90
56542;DHT22;42438;53.174;6.730;2023-01-05T00:44:23;9.40;99.90
56542;DHT22;42438;53.174;6.730;2023-01-05T00:46:54;9.30;99.90
56542;DHT22;42438;53.174;6.730;2023-01-05T00:49:25;9.20;99.90
56542;DHT22;42438;53.174;6.730;2023-01-05T00:51:55;9.10;99.90
56542;DHT22;42438;53.174;6.730;2023-01-05T00:54:26;9.40;99.90
56542;DHT22;42438;53.174;6.730;2023-01-05T00:56:57;9.20;99.90
56542;DHT22;42438;53.174;6.730;2023-01-05T00:59:27;9.20;99.90
56542;DHT22;42438;53.174;6.730;2023-01-05T01:01:58;9.30;99.90
56542;DHT22;42438;53.174;6.730;2023-01-05T01:04:30;9.20;99.90
56542;DHT22;42438;53.174;6.730;2023-01-05T01:07:02;9.30;99.90
56542;DHT22;42438;53.174;6.730;2023-01-05T01:09:33;9.20;99.90
56542;DHT22;42438;53.174;6.730;2023-01-05T01:12:04;9.40;99.90
56542;DHT22;42438;53.174;6.730;2023-01-05T01:14:35;9.20;99.90
56542;DHT22;42438;53.174;6.730;2023-01-05T01:17:06;9.10;99.90
56542;DHT22;42438;53.174;6.730;2023-01-05T01:19:37;9.10;99.90
56542;DHT22;42438;53.174;6.730;2023-01-05T01:22:08;9.30;99.90
56542;DHT22;42438;53.174;6.730;2023-01-05T01:24:39;9.40;99.90
56542;DHT22;42438;53.174;6.730;2023-01-05T01:27:10;9.20;99.90
56542;DHT22;42438;53.174;6.730;2023-01-05T01:29:40;9.20;99.90
56542;DHT22;42438;53.174;6.730;2023-01-05T01:32:11;9.10;99.90
56542;DHT22;42438;53.174;6.730;2023-01-05T01:34:42;9.30;99.90
56542;DHT22;42438;53.174;6.730;2023-01-05T01:37:12;9.40;99.90
56542;DHT22;42438;53.174;6.730;2023-01-05T01:39:43;9.70;99.90
56542;DHT22;42438;53.174;6.730;2023-01-05T01:42:15;9.40;99.90
56542;DHT22;42438;53.174;6.730;2023-01-05T01:47:30;9.20;99.90
56542;DHT22;42438;53.174;6.730;2023-01-05T01:52:53;9.40;99.90
56542;DHT22;42438;53.174;6.730;2023-01-05T01:55:25;9.30;99.90
56542;DHT22;42438;53.174;6.730;2023-01-05T01:57:58;9.40;99.90
56542;DHT22;42438;53.174;6.730;2023-01-05T02:00:30;9.30;99.90
56542;DHT22;42438;53.174;6.730;2023-01-05T02:03:00;9.40;99.90
56542;DHT22;42438;53.174;6.730;2023-01-05T02:05:32;9.30;99.90
56542;DHT22;42438;53.174;6.730;2023-01-05T02:08:09;9.40;99.90
56542;DHT22;42438;53.174;6.730;2023-01-05T02:10:59;9.50;99.90
56542;DHT22;42438;53.174;6.730;2023-01-05T02:13:39;9.40;99.90
56542;DHT22;42438;53.174;6.730;2023-01-05T02:16:31;9.30;99.90
56542;DHT22;42438;53.174;6.730;2023-01-05T02:28:05;9.30;99.90
56542;DHT22;42438;53.174;6.730;2023-01-05T02:33:40;9.40;99.90
56542;DHT22;42438;53.174;6.730;2023-01-05T02:44:32;9.40;99.90
56542;DHT22;42438;53.174;6.730;2023-01-05T02:49:58;9.40;99.90
56542;DHT22;42438;53.174;6.730;2023-01-05T02:52:41;9.50;99.90
56542;DHT22;42438;53.174;6.730;2023-01-05T02:55:15;9.40;99.90
56542;DHT22;42438;53.174;6.730;2023-01-05T02:57:58;9.40;99.90
56542;DHT22;42438;53.174;6.730;2023-01-05T03:00:37;9.30;99.90
56542;DHT22;42438;53.174;6.730;2023-01-05T03:03:18;9.40;99.90
56542;DHT22;42438;53.174;6.730;2023-01-05T03:05:55;9.30;99.90
56542;DHT22;42438;53.174;6.730;2023-01-05T03:08:30;9.20;99.90
56542;DHT22;42438;53.174;6.730;2023-01-05T03:11:07;9.20;99.90
56542;DHT22;42438;53.174;6.730;2023-01-05T03:16:43;9.20;99.90
56542;DHT22;42438;53.174;6.730;2023-01-05T03:19:17;9.20;99.90
56542;DHT22;42438;53.174;6.730;2023-01-05T03:22:17;9.20;99.90
56542;DHT22;42438;53.174;6.730;2023-01-05T03:25:08;9.30;99.90
56542;DHT22;42438;53.174;6.730;2023-01-05T03:28:00;9.40;99.90
56542;DHT22;42438;53.174;6.730;2023-01-05T03:31:00;9.30;99.90
56542;DHT22;42438;53.174;6.730;2023-01-05T03:34:14;9.20;99.90
56542;DHT22;42438;53.174;6.730;2023-01-05T03:37:11;9.50;99.90
56542;DHT22;42438;53.174;6.730;2023-01-05T03:39:45;9.30;99.90
56542;DHT22;42438;53.174;6.730;2023-01-05T03:42:16;9.30;99.90
56542;DHT22;42438;53.174;6.730;2023-01-05T03:44:48;9.20;99.90
56542;DHT22;42438;53.174;6.730;2023-01-05T03:47:19;9.40;99.90
56542;DHT22;42438;53.174;6.730;2023-01-05T03:49:50;9.40;99.90
56542;DHT22;42438;53.174;6.730;2023-01-05T03:52:21;9.20;99.90
56542;DHT22;42438;53.174;6.730;2023-01-05T03:54:51;9.20;99.90
56542;DHT22;42438;53.174;6.730;2023-01-05T03:57:22;9.20;99.90
56542;DHT22;42438;53.174;6.730;2023-01-05T03:59:53;9.30;99.90
56542;DHT22;42438;53.174;6.730;2023-01-05T04:02:23;9.40;99.90
56542;DHT22;42438;53.174;6.730;2023-01-05T04:04:54;9.30;99.90
56542;DHT22;42438;53.174;6.730;2023-01-05T04:07:25;9.30;99.90
56542;DHT22;42438;53.174;6.730;2023-01-05T04:09:55;9.30;99.90
56542;DHT22;42438;53.174;6.730;2023-01-05T04:12:27;9.10;99.90
56542;DHT22;42438;53.174;6.730;2023-01-05T04:14:58;9.30;99.90
56542;DHT22;42438;53.174;6.730;2023-01-05T04:17:28;9.20;99.90
56542;DHT22;42438;53.174;6.730;2023-01-05T04:19:59;9.20;99.90
56542;DHT22;42438;53.174;6.730;2023-01-05T04:22:30;9.20;99.90
56542;DHT22;42438;53.174;6.730;2023-01-05T04:25:01;9.20;99.90
56542;DHT22;42438;53.174;6.730;2023-01-05T04:27:32;9.20;99.90
56542;DHT22;42438;53.174;6.730;2023-01-05T04:30:03;9.20;99.90
56542;DHT22;42438;53.174;6.730;2023-01-05T04:32:34;9.40;99.90
56542;DHT22;42438;53.174;6.730;2023-01-05T04:35:05;9.30;99.90
56542;DHT22;42438;53.174;6.730;2023-01-05T04:37:36;9.40;99.90
56542;DHT22;42438;53.174;6.730;2023-01-05T04:40:07;9.40;99.90
56542;DHT22;42438;53.174;6.730;2023-01-05T04:42:38;9.40;99.90
56542;DHT22;42438;53.174;6.730;2023-01-05T04:45:09;9.40;99.90
56542;DHT22;42438;53.174;6.730;2023-01-05T04:47:39;9.50;99.90
56542;DHT22;42438;53.174;6.730;2023-01-05T04:50:10;9.40;99.90
56542;DHT22;42438;53.174;6.730;2023-01-05T04:52:41;9.50;99.90
56542;DHT22;42438;53.174;6.730;2023-01-05T04:55:11;9.50;99.90
56542;DHT22;42438;53.174;6.730;2023-01-05T04:57:42;9.50;99.90
56542;DHT22;42438;53.174;6.730;2023-01-05T05:00:13;9.50;99.90
56542;DHT22;42438;53.174;6.730;2023-01-05T05:02:44;9.40;99.90
56542;DHT22;42438;53.174;6.730;2023-01-05T05:05:15;9.40;99.90
56542;DHT22;42438;53.174;6.730;2023-01-05T05:07:45;9.40;99.90
56542;DHT22;42438;53.174;6.730;2023-01-05T05:10:16;9.40;99.90
56542;DHT22;42438;53.174;6.730;2023-01-05T05:12:49;9.40;99.90
56542;DHT22;42438;53.174;6.730;2023-01-05T05:15:20;9.50;99.90
56542;DHT22;42438;53.174;6.730;2023-01-05T05:17:50;9.50;99.90
56542;DHT22;42438;53.174;6.730;2023-01-05T05:20:21;9.50;99.90
56542;DHT22;42438;53.174;6.730;2023-01-05T05:22:52;9.50;99.90
56542;DHT22;42438;53.174;6.730;2023-01-05T05:25:22;9.50;99.90
56542;DHT22;42438;53.174;6.730;2023-01-05T05:27:53;9.60;99.90
56542;DHT22;42438;53.174;6.730;2023-01-05T05:30:23;9.50;99.90
56542;DHT22;42438;53.174;6.730;2023-01-05T05:32:54;9.50;99.90
56542;DHT22;42438;53.174;6.730;2023-01-05T05:35:25;9.70;99.90
56542;DHT22;42438;53.174;6.730;2023-01-05T05:37:55;9.70;99.90
56542;DHT22;42438;53.174;6.730;2023-01-05T05:40:26;9.50;99.90
56542;DHT22;42438;53.174;6.730;2023-01-05T05:42:57;9.50;99.90
56542;DHT22;42438;53.174;6.730;2023-01-05T05:45:28;9.60;99.90
56542;DHT22;42438;53.174;6.730;2023-01-05T05:47:59;9.50;99.90
56542;DHT22;42438;53.174;6.730;2023-01-05T05:50:31;9.60;99.90
56542;DHT22;42438;53.174;6.730;2023-01-05T05:53:01;9.50;99.90
56542;DHT22;42438;53.174;6.730;2023-01-05T05:55:32;9.50;99.90
56542;DHT22;42438;53.174;6.730;2023-01-05T05:58:03;9.50;99.90
56542;DHT22;42438;53.174;6.730;2023-01-05T06:00:34;9.50;99.90
56542;DHT22;42438;53.174;6.730;2023-01-05T06:03:05;9.40;99.90
56542;DHT22;42438;53.174;6.730;2023-01-05T06:05:36;9.40;99.90
56542;DHT22;42438;53.174;6.730;2023-01-05T06:08:06;9.50;99.90
56542;DHT22;42438;53.174;6.730;2023-01-05T06:10:37;9.40;99.90
56542;DHT22;42438;53.174;6.730;2023-01-05T06:13:08;9.50;99.90
56542;DHT22;42438;53.174;6.730;2023-01-05T06:15:39;9.50;99.90
56542;DHT22;42438;53.174;6.730;2023-01-05T06:18:09;9.40;99.90
56542;DHT22;42438;53.174;6.730;2023-01-05T06:20:40;9.40;99.90
56542;DHT22;42438;53.174;6.730;2023-01-05T06:23:11;9.40;99.90
56542;DHT22;42438;53.174;6.730;2023-01-05T06:25:42;9.40;99.90
56542;DHT22;42438;53.174;6.730;2023-01-05T06:28:13;9.30;99.90
56542;DHT22;42438;53.174;6.730;2023-01-05T06:30:43;9.60;99.90
56542;DHT22;42438;53.174;6.730;2023-01-05T06:33:14;9.40;99.90
56542;DHT22;42438;53.174;6.730;2023-01-05T06:35:45;9.30;99.90
56542;DHT22;42438;53.174;6.730;2023-01-05T06:38:15;9.20;99.90
56542;DHT22;42438;53.174;6.730;2023-01-05T06:40:47;9.30;99.90
56542;DHT22;42438;53.174;6.730;2023-01-05T06:43:17;9.20;99.90
56542;DHT22;42438;53.174;6.730;2023-01-05T06:45:48;9.30;99.90
56542;DHT22;42438;53.174;6.730;2023-01-05T06:48:19;9.10;99.90
56542;DHT22;42438;53.174;6.730;2023-01-05T06:50:50;9.20;99.90
56542;DHT22;42438;53.174;6.730;2023-01-05T06:53:20;9.00;99.90
56542;DHT22;42438;53.174;6.730;2023-01-05T06:55:51;9.20;99.90
56542;DHT22;42438;53.174;6.730;2023-01-05T06:58:22;9.00;99.90
56542;DHT22;42438;53.174;6.730;2023-01-05T07:00:53;9.00;99.90
56542;DHT22;42438;53.174;6.730;2023-01-05T07:03:24;9.20;99.90
56542;DHT22;42438;53.174;6.730;2023-01-05T07:05:55;9.00;99.90
56542;DHT22;42438;53.174;6.730;2023-01-05T07:08:25;9.10;99.90
56542;DHT22;42438;53.174;6.730;2023-01-05T07:10:56;8.90;99.90
56542;DHT22;42438;53.174;6.730;2023-01-05T07:13:26;9.00;99.90
56542;DHT22;42438;53.174;6.730;2023-01-05T07:15:57;9.10;99.90
56542;DHT22;42438;53.174;6.730;2023-01-05T07:18:28;9.00;99.90
56542;DHT22;42438;53.174;6.730;2023-01-05T07:20:59;9.10;99.90
56542;DHT22;42438;53.174;6.730;2023-01-05T07:23:30;9.00;99.90
56542;DHT22;42438;53.174;6.730;2023-01-05T07:26:00;9.00;99.90
56542;DHT22;42438;53.174;6.730;2023-01-05T07:28:32;9.10;99.90
56542;DHT22;42438;53.174;6.730;2023-01-05T07:31:03;9.30;99.90
56542;DHT22;42438;53.174;6.730;2023-01-05T07:33:35;9.20;99.90
56542;DHT22;42438;53.174;6.730;2023-01-05T07:36:06;9.00;99.90
56542;DHT22;42438;53.174;6.730;2023-01-05T07:38:37;9.20;99.90
56542;DHT22;42438;53.174;6.730;2023-01-05T07:41:08;9.20;99.90
56542;DHT22;42438;53.174;6.730;2023-01-05T07:43:38;9.20;99.90
56542;DHT22;42438;53.174;6.730;2023-01-05T07:46:09;9.10;99.90
56542;DHT22;42438;53.174;6.730;2023-01-05T07:48:40;9.20;99.90
56542;DHT22;42438;53.174;6.730;2023-01-05T07:51:11;9.10;99.90
56542;DHT22;42438;53.174;6.730;2023-01-05T07:53:42;9.10;99.90
56542;DHT22;42438;53.174;6.730;2023-01-05T07:56:13;9.20;99.90
56542;DHT22;42438;53.174;6.730;2023-01-05T07:58:44;9.30;99.90
56542;DHT22;42438;53.174;6.730;2023-01-05T08:01:15;9.30;99.90
56542;DHT22;42438;53.174;6.730;2023-01-05T08:03:47;9.20;99.90
56542;DHT22;42438;53.174;6.730;2023-01-05T08:06:19;9.10;99.90
56542;DHT22;42438;53.174;6.730;2023-01-05T08:08:50;9.20;99.90
56542;DHT22;42438;53.174;6.730;2023-01-05T08:11:20;9.10;99.90
56542;DHT22;42438;53.174;6.730;2023-01-05T08:13:51;9.20;99.90
56542;DHT22;42438;53.174;6.730;2023-01-05T08:16:34;9.20;99.90
56542;DHT22;42438;53.174;6.730;2023-01-05T08:19:05;9.10;99.90
56542;DHT22;42438;53.174;6.730;2023-01-05T08:21:35;9.10;99.90
56542;DHT22;42438;53.174;6.730;2023-01-05T08:24:06;9.10;99.90
56542;DHT22;42438;53.174;6.730;2023-01-05T08:26:37;9.20;99.90
56542;DHT22;42438;53.174;6.730;2023-01-05T08:29:08;9.30;99.90
56542;DHT22;42438;53.174;6.730;2023-01-05T08:31:39;9.20;99.90
56542;DHT22;42438;53.174;6.730;2023-01-05T08:34:09;9.20;99.90
56542;DHT22;42438;53.174;6.730;2023-01-05T08:36:40;9.10;99.90
56542;DHT22;42438;53.174;6.730;2023-01-05T08:39:11;9.10;99.90
56542;DHT22;42438;53.174;6.730;2023-01-05T08:41:42;9.10;99.90
56542;DHT22;42438;53.174;6.730;2023-01-05T08:44:13;9.20;99.90
56542;DHT22;42438;53.174;6.730;2023-01-05T08:46:44;9.10;99.90
56542;DHT22;42438;53.174;6.730;2023-01-05T08:49:14;9.10;99.90
56542;DHT22;42438;53.174;6.730;2023-01-05T08:51:45;9.10;99.90
56542;DHT22;42438;53.174;6.730;2023-01-05T08:54:16;9.10;99.90
56542;DHT22;42438;53.174;6.730;2023-01-05T08:56:46;9.30;99.90
56542;DHT22;42438;53.174;6.730;2023-01-05T08:59:20;9.20;99.90
56542;DHT22;42438;53.174;6.730;2023-01-05T09:01:50;9.30;99.90
56542;DHT22;42438;53.174;6.730;2023-01-05T09:04:21;9.40;99.90
56542;DHT22;42438;53.174;6.730;2023-01-05T09:06:52;9.40;99.90
56542;DHT22;42438;53.174;6.730;2023-01-05T09:09:23;9.40;99.90
56542;DHT22;42438;53.174;6.730;2023-01-05T09:11:54;9.30;99.90
56542;DHT22;42438;53.174;6.730;2023-01-05T09:14:24;9.30;99.90
56542;DHT22;42438;53.174;6.730;2023-01-05T09:16:55;9.10;99.90
56542;DHT22;42438;53.174;6.730;2023-01-05T09:19:26;9.10;99.90
56542;DHT22;42438;53.174;6.730;2023-01-05T09:21:56;9.10;99.90
56542;DHT22;42438;53.174;6.730;2023-01-05T09:24:27;9.10;99.90
56542;DHT22;42438;53.174;6.730;2023-01-05T09:26:58;9.20;99.90
56542;DHT22;42438;53.174;6.730;2023-01-05T09:29:28;9.00;99.90
56542;DHT22;42438;53.174;6.730;2023-01-05T09:31:59;9.00;99.90
56542;DHT22;42438;53.174;6.730;2023-01-05T09:34:30;9.10;99.90
56542;DHT22;42438;53.174;6.730;2023-01-05T09:37:01;8.90;99.90
56542;DHT22;42438;53.174;6.730;2023-01-05T09:39:31;8.80;99.90
56542;DHT22;42438;53.174;6.730;2023-01-05T09:42:05;9.00;99.90
56542;DHT22;42438;53.174;6.730;2023-01-05T09:44:43;8.90;99.90
56542;DHT22;42438;53.174;6.730;2023-01-05T09:47:37;8.90;99.90
56542;DHT22;42438;53.174;6.730;2023-01-05T09:50:19;8.90;99.90
56542;DHT22;42438;53.174;6.730;2023-01-05T09:52:54;8.80;99.90
56542;DHT22;42438;53.174;6.730;2023-01-05T09:55:28;8.90;99.90
56542;DHT22;42438;53.174;6.730;2023-01-05T09:58:14;8.90;99.90
56542;DHT22;42438;53.174;6.730;2023-01-05T10:01:05;8.90;99.90
56542;DHT22;42438;53.174;6.730;2023-01-05T10:06:15;9.10;99.90
56542;DHT22;42438;53.174;6.730;2023-01-05T10:08:49;9.10;99.90
56542;DHT22;42438;53.174;6.730;2023-01-05T10:11:28;9.00;99.90
56542;DHT22;42438;53.174;6.730;2023-01-05T10:14:34;8.90;99.90
56542;DHT22;42438;53.174;6.730;2023-01-05T10:17:12;8.90;99.90
56542;DHT22;42438;53.174;6.730;2023-01-05T10:19:44;9.10;99.90
56542;DHT22;42438;53.174;6.730;2023-01-05T10:25:03;9.10;99.90
56542;DHT22;42438;53.174;6.730;2023-01-05T10:27:45;8.90;99.90
56542;DHT22;42438;53.174;6.730;2023-01-05T10:30:53;9.10;99.90
56542;DHT22;42438;53.174;6.730;2023-01-05T10:33:48;9.10;99.90
56542;DHT22;42438;53.174;6.730;2023-01-05T10:42:12;9.10;99.90
56542;DHT22;42438;53.174;6.730;2023-01-05T10:45:02;9.20;99.90
56542;DHT22;42438;53.174;6.730;2023-01-05T10:47:36;9.00;99.90
56542;DHT22;42438;53.174;6.730;2023-01-05T10:53:02;9.10;99.90
56542;DHT22;42438;53.174;6.730;2023-01-05T10:58:33;9.00;99.90
56542;DHT22;42438;53.174;6.730;2023-01-05T11:01:21;9.20;99.90
56542;DHT22;42438;53.174;6.730;2023-01-05T11:04:17;9.10;99.90
56542;DHT22;42438;53.174;6.730;2023-01-05T11:06:49;9.30;99.90
56542;DHT22;42438;53.174;6.730;2023-01-05T11:09:22;9.30;99.90
56542;DHT22;42438;53.174;6.730;2023-01-05T11:11:58;9.40;99.90
56542;DHT22;42438;53.174;6.730;2023-01-05T11:14:40;9.40;99.90
56542;DHT22;42438;53.174;6.730;2023-01-05T11:17:22;9.60;99.90
56542;DHT22;42438;53.174;6.730;2023-01-05T11:19:55;9.60;99.90
56542;DHT22;42438;53.174;6.730;2023-01-05T11:22:36;9.60;99.90
56542;DHT22;42438;53.174;6.730;2023-01-05T11:25:29;9.60;99.90
56542;DHT22;42438;53.174;6.730;2023-01-05T11:28:15;9.60;99.90
56542;DHT22;42438;53.174;6.730;2023-01-05T11:30:59;9.70;99.90
56542;DHT22;42438;53.174;6.730;2023-01-05T11:33:34;9.70;99.90
56542;DHT22;42438;53.174;6.730;2023-01-05T11:36:13;9.60;99.90
56542;DHT22;42438;53.174;6.730;2023-01-05T11:38:51;9.70;99.90
56542;DHT22;42438;53.174;6.730;2023-01-05T11:41:23;9.60;99.90
56542;DHT22;42438;53.174;6.730;2023-01-05T11:43:55;9.70;99.90
56542;DHT22;42438;53.174;6.730;2023-01-05T11:46:40;9.60;99.90
56542;DHT22;42438;53.174;6.730;2023-01-05T11:49:17;9.60;99.90
56542;DHT22;42438;53.174;6.730;2023-01-05T11:51:48;9.60;99.90
56542;DHT22;42438;53.174;6.730;2023-01-05T11:54:31;9.60;99.90
56542;DHT22;42438;53.174;6.730;2023-01-05T11:57:21;9.70;99.90
56542;DHT22;42438;53.174;6.730;2023-01-05T11:59:52;9.50;99.90
56542;DHT22;42438;53.174;6.730;2023-01-05T12:05:52;9.70;99.90
56542;DHT22;42438;53.174;6.730;2023-01-05T12:08:47;9.60;99.90
56542;DHT22;42438;53.174;6.730;2023-01-05T12:11:24;9.60;99.90
56542;DHT22;42438;53.174;6.730;2023-01-05T12:16:46;9.70;99.90
56542;DHT22;42438;53.174;6.730;2023-01-05T12:27:59;9.70;99.90
56542;DHT22;42438;53.174;6.730;2023-01-05T12:30:45;9.70;99.90
56542;DHT22;42438;53.174;6.730;2023-01-05T12:47:21;9.90;99.90
56542;DHT22;42438;53.174;6.730;2023-01-05T12:53:04;9.80;99.90
56542;DHT22;42438;53.174;6.730;2023-01-05T12:55:40;9.80;99.90
56542;DHT22;42438;53.174;6.730;2023-01-05T12:58:17;9.80;99.90
56542;DHT22;42438;53.174;6.730;2023-01-05T13:00:52;9.80;99.90
56542;DHT22;42438;53.174;6.730;2023-01-05T13:03:43;9.80;99.90
56542;DHT22;42438;53.174;6.730;2023-01-05T13:06:20;9.80;99.90
56542;DHT22;42438;53.174;6.730;2023-01-05T13:09:05;9.80;99.90
56542;DHT22;42438;53.174;6.730;2023-01-05T13:11:50;9.80;99.90
56542;DHT22;42438;53.174;6.730;2023-01-05T13:14:26;9.80;99.90
56542;DHT22;42438;53.174;6.730;2023-01-05T13:17:03;9.70;99.90
56542;DHT22;42438;53.174;6.730;2023-01-05T13:19:45;9.80;99.90
56542;DHT22;42438;53.174;6.730;2023-01-05T13:22:23;9.90;99.90
56542;DHT22;42438;53.174;6.730;2023-01-05T13:25:02;9.90;99.90
56542;DHT22;42438;53.174;6.730;2023-01-05T13:27:34;9.80;99.90
56542;DHT22;42438;53.174;6.730;2023-01-05T13:30:05;9.80;99.90
56542;DHT22;42438;53.174;6.730;2023-01-05T13:33:20;9.90;99.90
56542;DHT22;42438;53.174;6.730;2023-01-05T13:55:33;9.70;99.90
56542;DHT22;42438;53.174;6.730;2023-01-05T14:00:55;9.70;99.90
56542;DHT22;42438;53.174;6.730;2023-01-05T14:03:35;9.70;99.90
56542;DHT22;42438;53.174;6.730;2023-01-05T14:06:15;9.70;99.90
56542;DHT22;42438;53.174;6.730;2023-01-05T14:08:55;9.60;99.90
56542;DHT22;42438;53.174;6.730;2023-01-05T14:11:27;9.50;99.90
56542;DHT22;42438;53.174;6.730;2023-01-05T14:14:01;9.60;99.90
56542;DHT22;42438;53.174;6.730;2023-01-05T14:22:32;9.60;99.90
56542;DHT22;42438;53.174;6.730;2023-01-05T14:28:17;9.60;99.90
56542;DHT22;42438;53.174;6.730;2023-01-05T14:30:49;9.60;99.90
56542;DHT22;42438;53.174;6.730;2023-01-05T14:33:20;9.60;99.90
56542;DHT22;42438;53.174;6.730;2023-01-05T14:35:52;9.70;99.90
56542;DHT22;42438;53.174;6.730;2023-01-05T14:38:24;9.50;99.90
56542;DHT22;42438;53.174;6.730;2023-01-05T14:40:55;9.60;99.90
56542;DHT22;42438;53.174;6.730;2023-01-05T14:43:32;9.60;99.90
56542;DHT22;42438;53.174;6.730;2023-01-05T14:46:06;9.50;99.90
56542;DHT22;42438;53.174;6.730;2023-01-05T14:49:03;9.60;99.90
56542;DHT22;42438;53.174;6.730;2023-01-05T14:51:36;9.50;99.90
56542;DHT22;42438;53.174;6.730;2023-01-05T14:54:09;9.50;99.90
56542;DHT22;42438;53.174;6.730;2023-01-05T15:03:14;9.50;99.90
56542;DHT22;42438;53.174;6.730;2023-01-05T15:11:51;9.40;99.90
56542;DHT22;42438;53.174;6.730;2023-01-05T15:29:27;9.20;99.90
56542;DHT22;42438;53.174;6.730;2023-01-05T15:32:22;9.30;99.90
56542;DHT22;42438;53.174;6.730;2023-01-05T15:35:14;9.10;99.90
56542;DHT22;42438;53.174;6.730;2023-01-05T15:37:46;9.10;99.90
56542;DHT22;42438;53.174;6.730;2023-01-05T15:43:01;8.90;99.90
56542;DHT22;42438;53.174;6.730;2023-01-05T15:45:34;9.10;99.90
56542;DHT22;42438;53.174;6.730;2023-01-05T15:48:09;9.00;99.90
56542;DHT22;42438;53.174;6.730;2023-01-05T15:50:48;8.90;99.90
56542;DHT22;42438;53.174;6.730;2023-01-05T15:53:24;9.10;99.90
56542;DHT22;42438;53.174;6.730;2023-01-05T15:55:56;8.90;99.90
56542;DHT22;42438;53.174;6.730;2023-01-05T15:58:29;9.00;99.90
56542;DHT22;42438;53.174;6.730;2023-01-05T16:01:12;8.80;99.90
56542;DHT22;42438;53.174;6.730;2023-01-05T16:03:45;9.00;99.90
56542;DHT22;42438;53.174;6.730;2023-01-05T16:06:20;8.80;99.90
56542;DHT22;42438;53.174;6.730;2023-01-05T16:08:53;8.80;99.90
56542;DHT22;42438;53.174;6.730;2023-01-05T16:11:27;8.80;99.90
56542;DHT22;42438;53.174;6.730;2023-01-05T16:14:07;8.80;99.90
56542;DHT22;42438;53.174;6.730;2023-01-05T16:16:46;8.90;99.90
56542;DHT22;42438;53.174;6.730;2023-01-05T16:27:15;9.00;99.90
56542;DHT22;42438;53.174;6.730;2023-01-05T16:29:47;9.00;99.90
56542;DHT22;42438;53.174;6.730;2023-01-05T16:32:32;8.80;99.90
56542;DHT22;42438;53.174;6.730;2023-01-05T16:51:37;8.70;99.90
56542;DHT22;42438;53.174;6.730;2023-01-05T16:54:31;8.80;99.90
56542;DHT22;42438;53.174;6.730;2023-01-05T17:00:35;8.90;99.90
56542;DHT22;42438;53.174;6.730;2023-01-05T17:03:27;9.00;99.90
56542;DHT22;42438;53.174;6.730;2023-01-05T17:05:59;8.80;99.90
56542;DHT22;42438;53.174;6.730;2023-01-05T17:08:32;8.90;99.90
56542;DHT22;42438;53.174;6.730;2023-01-05T17:11:08;8.90;99.90
56542;DHT22;42438;53.174;6.730;2023-01-05T17:13:45;8.80;99.90
56542;DHT22;42438;53.174;6.730;2023-01-05T17:16:18;8.80;99.90
56542;DHT22;42438;53.174;6.730;2023-01-05T17:18:48;8.80;99.90
56542;DHT22;42438;53.174;6.730;2023-01-05T17:21:22;8.90;99.90
56542;DHT22;42438;53.174;6.730;2023-01-05T17:23:55;8.90;99.90
56542;DHT22;42438;53.174;6.730;2023-01-05T17:26:34;8.80;99.90
56542;DHT22;42438;53.174;6.730;2023-01-05T17:29:05;8.90;99.90
56542;DHT22;42438;53.174;6.730;2023-01-05T17:31:36;8.70;99.90
56542;DHT22;42438;53.174;6.730;2023-01-05T17:34:07;8.70;99.90
56542;DHT22;42438;53.174;6.730;2023-01-05T17:36:38;8.80;99.90
56542;DHT22;42438;53.174;6.730;2023-01-05T17:39:16;8.80;99.90
56542;DHT22;42438;53.174;6.730;2023-01-05T17:41:47;8.80;99.90
56542;DHT22;42438;53.174;6.730;2023-01-05T17:44:18;8.70;99.90
56542;DHT22;42438;53.174;6.730;2023-01-05T17:46:49;8.70;99.90
56542;DHT22;42438;53.174;6.730;2023-01-05T17:49:20;8.70;99.90
56542;DHT22;42438;53.174;6.730;2023-01-05T17:51:50;8.80;99.90
56542;DHT22;42438;53.174;6.730;2023-01-05T17:54:21;8.60;99.90
56542;DHT22;42438;53.174;6.730;2023-01-05T17:56:52;8.80;99.90
56542;DHT22;42438;53.174;6.730;2023-01-05T17:59:23;8.60;99.90
56542;DHT22;42438;53.174;6.730;2023-01-05T18:01:54;8.60;99.90
56542;DHT22;42438;53.174;6.730;2023-01-05T18:04:24;8.80;99.90
56542;DHT22;42438;53.174;6.730;2023-01-05T18:06:55;8.60;99.90
56542;DHT22;42438;53.174;6.730;2023-01-05T18:09:26;8.70;99.90
56542;DHT22;42438;53.174;6.730;2023-01-05T18:11:56;8.60;99.90
56542;DHT22;42438;53.174;6.730;2023-01-05T18:14:27;8.60;99.90
56542;DHT22;42438;53.174;6.730;2023-01-05T18:16:58;8.80;99.90
56542;DHT22;42438;53.174;6.730;2023-01-05T18:19:28;8.70;99.90
56542;DHT22;42438;53.174;6.730;2023-01-05T18:21:59;8.90;99.90
56542;DHT22;42438;53.174;6.730;2023-01-05T18:24:30;8.70;99.90
56542;DHT22;42438;53.174;6.730;2023-01-05T18:27:01;8.70;99.90
56542;DHT22;42438;53.174;6.730;2023-01-05T18:29:37;8.90;99.90
56542;DHT22;42438;53.174;6.730;2023-01-05T18:32:08;8.80;99.90
56542;DHT22;42438;53.174;6.730;2023-01-05T18:34:39;8.70;99.90
56542;DHT22;42438;53.174;6.730;2023-01-05T18:37:09;8.70;99.90
56542;DHT22;42438;53.174;6.730;2023-01-05T18:39:40;8.70;99.90
56542;DHT22;42438;53.174;6.730;2023-01-05T18:42:12;8.80;99.90
56542;DHT22;42438;53.174;6.730;2023-01-05T18:44:43;8.90;99.90
56542;DHT22;42438;53.174;6.730;2023-01-05T18:47:14;9.00;99.90
56542;DHT22;42438;53.174;6.730;2023-01-05T18:49:44;9.00;99.90
56542;DHT22;42438;53.174;6.730;2023-01-05T18:52:15;8.90;99.90
56542;DHT22;42438;53.174;6.730;2023-01-05T18:54:46;9.00;99.90
56542;DHT22;42438;53.174;6.730;2023-01-05T18:57:16;8.80;99.90
56542;DHT22;42438;53.174;6.730;2023-01-05T18:59:47;8.90;99.90
56542;DHT22;42438;53.174;6.730;2023-01-05T19:02:18;8.80;99.90
56542;DHT22;42438;53.174;6.730;2023-01-05T19:04:48;8.90;99.90
56542;DHT22;42438;53.174;6.730;2023-01-05T19:07:19;8.80;99.90
56542;DHT22;42438;53.174;6.730;2023-01-05T19:09:51;9.00;99.90
56542;DHT22;42438;53.174;6.730;2023-01-05T19:12:22;9.00;99.90
56542;DHT22;42438;53.174;6.730;2023-01-05T19:14:52;8.80;99.90
56542;DHT22;42438;53.174;6.730;2023-01-05T19:17:23;8.80;99.90
56542;DHT22;42438;53.174;6.730;2023-01-05T19:19:54;8.70;99.90